Huvudsida
METAR-TAF:

METAR-TAF

Flygplatser :

Førde flygplats. Bringeland

Førde, Norge

latitud: 61-27N, longitud: 005-52E, höjd: 150 m

Aktuellt väderrapport

Denna rapport gjordes för 1 timme och 38 minuter sedan, klockan 21:50 UTC
Vind 9 kt från väst/sydväst, varierande mellan syd/sydväst och väst/nordväst
Temperatur 3°C
Fuktighet 93%
Tryck 1007 hPa
Sikt 10 km eller mer
Få moln på en höjd av 500 ft
Spridda moln på en höjd av 1200 ft
Brutna moln på en höjd av 2000 ft

METAR: ENBL 222150Z 25009KT 200V290 9999 FEW005 SCT012 BKN020 03/02 Q1007

Tid: 00:28 (23:28 UTC)


TAF: saknas

Aktuella väderrapporter och prognoser från 4000 flygplatser (METAR- och TAF-rapporter).

De tillgängliga stationerna syns som gula och röda prickar på kartan.

För musen över prickarna för att se namnen på stationerna.

Klicka sedan för att få väderrapporter och prognoser.

För att ändra kartan: Klicka på de gröna knapparna med ett svart kors på för att zooma in; den gröna knappen med ett streck på för att zooma ut; eller på de gröna pilarna för angränsande kartor.


METAR-TAF: